createdAt,value
2022-11-24T00:00:24.977Z,0.00
2022-11-24T00:01:24.999Z,0.00
2022-11-24T00:02:25.079Z,0.00
2022-11-24T00:03:25.053Z,0.00
2022-11-24T00:04:24.937Z,0.00
2022-11-24T00:05:24.922Z,0.00
2022-11-24T00:06:24.976Z,0.00
2022-11-24T00:07:24.928Z,0.00
2022-11-24T00:08:24.896Z,0.00
2022-11-24T00:09:24.877Z,0.00
2022-11-24T00:10:24.866Z,0.00
2022-11-24T00:11:24.861Z,0.00
2022-11-24T00:12:24.837Z,0.00
2022-11-24T00:13:24.826Z,0.00
2022-11-24T00:14:24.810Z,0.00
2022-11-24T00:15:24.820Z,0.00
2022-11-24T00:16:24.855Z,0.00
2022-11-24T00:17:24.784Z,0.00
2022-11-24T00:18:24.800Z,0.00
2022-11-24T00:19:24.759Z,0.00
2022-11-24T00:20:24.763Z,0.00
2022-11-24T00:21:24.783Z,0.00
2022-11-24T00:22:24.741Z,0.00
2022-11-24T00:23:24.737Z,0.00
2022-11-24T00:24:24.700Z,0.00
2022-11-24T00:25:24.695Z,0.00
2022-11-24T00:26:24.692Z,0.00
2022-11-24T00:27:24.677Z,0.00
2022-11-24T00:28:24.655Z,0.00
2022-11-24T00:29:24.659Z,0.00
2022-11-24T00:30:24.906Z,0.00
2022-11-24T00:31:24.709Z,0.00
2022-11-24T00:32:24.623Z,0.00
2022-11-24T00:33:24.615Z,0.00
2022-11-24T00:34:24.598Z,0.00
2022-11-24T00:35:31.159Z,0.00
2022-11-24T00:36:24.588Z,0.00
2022-11-24T00:37:24.617Z,0.00
2022-11-24T00:38:24.583Z,0.00
2022-11-24T00:39:24.563Z,0.00
2022-11-24T00:40:24.532Z,0.00
2022-11-24T00:41:24.539Z,0.00
2022-11-24T00:42:24.535Z,0.00
2022-11-24T00:43:24.509Z,0.00
2022-11-24T00:44:24.589Z,0.00
2022-11-24T00:45:24.480Z,0.00
2022-11-24T00:46:24.611Z,0.00
2022-11-24T00:47:24.528Z,0.00
2022-11-24T00:48:24.452Z,0.00
2022-11-24T00:49:24.426Z,0.00
2022-11-24T00:50:24.425Z,0.00
2022-11-24T00:51:24.402Z,0.00
2022-11-24T00:52:24.409Z,0.00
2022-11-24T00:53:24.388Z,0.00
2022-11-24T00:54:24.377Z,0.00
2022-11-24T00:55:24.365Z,0.00
2022-11-24T00:56:24.370Z,0.00
2022-11-24T00:57:24.350Z,0.00
2022-11-24T00:58:24.347Z,0.00
2022-11-24T00:59:24.344Z,0.00
2022-11-24T01:00:24.317Z,0.00
2022-11-24T01:01:24.473Z,0.00
2022-11-24T01:02:24.318Z,0.00
2022-11-24T01:03:24.289Z,0.00
2022-11-24T01:04:24.265Z,0.00
2022-11-24T01:05:24.247Z,0.00
2022-11-24T01:06:24.252Z,0.00
2022-11-24T01:07:24.264Z,0.00
2022-11-24T01:08:24.278Z,0.00
2022-11-24T01:09:24.213Z,0.00
2022-11-24T01:10:24.199Z,0.00
2022-11-24T01:11:24.193Z,0.00
2022-11-24T01:12:24.177Z,0.00
2022-11-24T01:13:24.164Z,0.00
2022-11-24T01:14:24.163Z,0.00
2022-11-24T01:15:30.759Z,0.00
2022-11-24T01:16:24.193Z,0.00
2022-11-24T01:17:24.114Z,0.00
2022-11-24T01:18:24.111Z,0.00
2022-11-24T01:19:24.150Z,0.00
2022-11-24T01:20:24.098Z,0.00
2022-11-24T01:21:24.367Z,0.00
2022-11-24T01:22:24.101Z,0.00
2022-11-24T01:23:24.060Z,0.00
2022-11-24T01:24:24.045Z,0.00
2022-11-24T01:25:24.024Z,0.00
2022-11-24T01:26:24.018Z,0.00
2022-11-24T01:27:24.041Z,0.00
2022-11-24T01:28:24.003Z,0.00
2022-11-24T01:29:24.553Z,0.00
2022-11-24T01:30:23.976Z,0.00
2022-11-24T01:31:24.009Z,0.00
2022-11-24T01:32:23.971Z,0.00
2022-11-24T01:33:23.958Z,0.00
2022-11-24T01:34:23.934Z,0.00
2022-11-24T01:35:23.943Z,0.00
2022-11-24T01:36:23.913Z,0.00
2022-11-24T01:37:23.902Z,0.00
2022-11-24T01:38:23.880Z,0.00
2022-11-24T01:39:23.927Z,0.00
2022-11-24T01:40:23.888Z,0.00
2022-11-24T01:41:23.851Z,0.00
2022-11-24T01:42:23.860Z,0.00
2022-11-24T01:43:23.825Z,0.00
2022-11-24T01:44:23.815Z,0.00
2022-11-24T01:45:23.803Z,0.00
2022-11-24T01:46:23.887Z,0.00
2022-11-24T01:47:23.789Z,0.00
2022-11-24T01:48:27.376Z,0.00
2022-11-24T01:49:23.775Z,0.00
2022-11-24T01:50:23.760Z,0.00
2022-11-24T01:51:23.756Z,0.00
2022-11-24T01:52:23.727Z,0.00
2022-11-24T01:53:23.743Z,0.00
2022-11-24T01:54:23.719Z,0.00
2022-11-24T01:55:23.702Z,0.00
2022-11-24T01:56:23.705Z,0.00
2022-11-24T01:57:23.690Z,0.00
2022-11-24T01:58:23.666Z,0.00
2022-11-24T01:59:23.658Z,0.00
2022-11-24T02:00:23.638Z,0.00
2022-11-24T02:01:23.696Z,0.00
2022-11-24T02:02:23.697Z,0.00
2022-11-24T02:03:23.620Z,0.00
2022-11-24T02:04:23.661Z,0.00
2022-11-24T02:05:23.588Z,0.00
2022-11-24T02:06:23.611Z,0.00
2022-11-24T02:07:23.608Z,0.00
2022-11-24T02:08:23.568Z,0.00
2022-11-24T02:09:23.547Z,0.00
2022-11-24T02:10:23.600Z,0.00
2022-11-24T02:11:23.524Z,0.00
2022-11-24T02:12:23.505Z,0.00
2022-11-24T02:13:23.492Z,0.00
2022-11-24T02:14:23.492Z,0.00
2022-11-24T02:15:23.490Z,0.00
2022-11-24T02:16:23.564Z,0.00
2022-11-24T02:17:23.466Z,0.00
2022-11-24T02:18:23.449Z,0.00
2022-11-24T02:19:23.426Z,0.00
2022-11-24T02:20:23.422Z,0.00
2022-11-24T02:21:23.401Z,0.00
2022-11-24T02:22:23.422Z,0.00
2022-11-24T02:23:23.383Z,0.00
2022-11-24T02:24:23.381Z,0.00
2022-11-24T02:25:23.389Z,0.00
2022-11-24T02:26:23.360Z,0.00
2022-11-24T02:27:23.354Z,0.00
2022-11-24T02:28:23.335Z,0.00
2022-11-24T02:29:23.317Z,0.00
2022-11-24T02:30:23.354Z,0.00
2022-11-24T02:31:23.481Z,0.00
2022-11-24T02:32:23.279Z,0.00
2022-11-24T02:33:23.281Z,0.00
2022-11-24T02:34:23.274Z,0.00
2022-11-24T02:35:29.851Z,0.00
2022-11-24T02:36:23.234Z,0.00
2022-11-24T02:37:23.227Z,0.00
2022-11-24T02:38:23.211Z,0.00
2022-11-24T02:39:23.212Z,0.00
2022-11-24T02:40:23.214Z,0.00
2022-11-24T02:41:23.223Z,0.00
2022-11-24T02:42:23.170Z,0.00
2022-11-24T02:43:23.196Z,0.00
2022-11-24T02:44:23.154Z,0.00
2022-11-24T02:45:23.145Z,0.00
2022-11-24T02:46:23.175Z,0.00
2022-11-24T02:47:23.127Z,0.00
2022-11-24T02:48:23.116Z,0.00
2022-11-24T02:49:23.104Z,0.00
2022-11-24T02:50:23.124Z,0.00
2022-11-24T02:51:23.072Z,0.00
2022-11-24T02:52:23.084Z,0.00
2022-11-24T02:53:23.044Z,0.00
2022-11-24T02:54:23.044Z,0.00
2022-11-24T02:55:23.069Z,0.00
2022-11-24T02:56:23.021Z,0.00
2022-11-24T02:57:23.014Z,0.00
2022-11-24T02:58:23.012Z,0.00
2022-11-24T02:59:23.024Z,0.00
2022-11-24T03:00:23.014Z,0.00
2022-11-24T03:01:23.054Z,0.00
2022-11-24T03:02:22.995Z,0.00
2022-11-24T03:03:22.937Z,0.00
2022-11-24T03:04:22.939Z,0.00
2022-11-24T03:05:22.922Z,0.00
2022-11-24T03:06:22.937Z,0.00
2022-11-24T03:07:22.954Z,0.00
2022-11-24T03:08:22.877Z,0.00
2022-11-24T03:09:22.885Z,0.00
2022-11-24T03:10:22.861Z,0.00
2022-11-24T03:11:22.850Z,0.00
2022-11-24T03:12:22.921Z,0.00
2022-11-24T03:13:22.833Z,0.00
2022-11-24T03:14:22.828Z,0.00
2022-11-24T03:15:29.327Z,0.00
2022-11-24T03:16:22.877Z,0.00
2022-11-24T03:17:22.791Z,0.00
2022-11-24T03:18:22.853Z,0.00
2022-11-24T03:19:22.786Z,0.00
2022-11-24T03:20:22.753Z,0.00
2022-11-24T03:21:22.762Z,0.00
2022-11-24T03:22:22.769Z,0.00
2022-11-24T03:23:22.720Z,0.00
2022-11-24T03:24:22.730Z,0.00
2022-11-24T03:25:22.702Z,0.00
2022-11-24T03:26:22.693Z,0.00
2022-11-24T03:27:22.683Z,0.00
2022-11-24T03:28:22.671Z,0.00
2022-11-24T03:29:22.683Z,0.00
2022-11-24T03:30:22.660Z,0.00
2022-11-24T03:31:22.705Z,0.00
2022-11-24T03:32:22.638Z,0.00
2022-11-24T03:33:22.627Z,0.00
2022-11-24T03:34:22.638Z,0.00
2022-11-24T03:35:29.177Z,0.00
2022-11-24T03:36:22.669Z,0.00
2022-11-24T03:37:22.576Z,0.00
2022-11-24T03:38:22.583Z,0.00
2022-11-24T03:39:22.605Z,0.00
2022-11-24T03:40:22.540Z,0.00
2022-11-24T03:41:22.556Z,0.00
2022-11-24T03:42:22.549Z,0.00
2022-11-24T03:43:22.548Z,0.00
2022-11-24T03:44:22.516Z,0.00
2022-11-24T03:45:44.795Z,0.00
2022-11-24T03:46:22.543Z,0.00
2022-11-24T03:47:22.485Z,0.00
2022-11-24T03:48:22.446Z,0.00
2022-11-24T03:49:22.423Z,0.00
2022-11-24T03:50:22.430Z,0.00
2022-11-24T03:51:22.412Z,0.00
2022-11-24T03:52:22.427Z,0.00
2022-11-24T03:53:22.412Z,0.00
2022-11-24T03:54:22.402Z,0.00
2022-11-24T03:55:22.367Z,0.00
2022-11-24T03:56:22.387Z,0.00
2022-11-24T03:57:22.368Z,0.00
2022-11-24T03:58:22.361Z,0.00
2022-11-24T03:59:22.322Z,0.00
2022-11-24T04:00:22.314Z,0.00
2022-11-24T04:01:22.317Z,0.00
2022-11-24T04:02:22.341Z,0.00
2022-11-24T04:03:22.284Z,0.00
2022-11-24T04:04:22.273Z,0.00
2022-11-24T04:05:22.260Z,0.00
2022-11-24T04:06:22.267Z,0.00
2022-11-24T04:07:22.330Z,0.00
2022-11-24T04:08:22.226Z,0.00
2022-11-24T04:09:22.336Z,0.00
2022-11-24T04:10:22.194Z,0.00
2022-11-24T04:11:22.238Z,0.00
2022-11-24T04:12:22.207Z,0.00
2022-11-24T04:13:22.187Z,0.00
2022-11-24T04:14:22.208Z,0.00
2022-11-24T04:15:22.162Z,0.00
2022-11-24T04:16:22.250Z,0.00
2022-11-24T04:17:22.182Z,0.00
2022-11-24T04:18:22.138Z,0.00
2022-11-24T04:19:22.130Z,0.00
2022-11-24T04:20:22.102Z,0.00
2022-11-24T04:21:22.096Z,0.00
2022-11-24T04:22:22.065Z,0.00
2022-11-24T04:23:22.075Z,0.00
2022-11-24T04:24:22.082Z,0.00
2022-11-24T04:25:22.039Z,0.00
2022-11-24T04:26:22.046Z,0.00
2022-11-24T04:27:22.034Z,0.00
2022-11-24T04:28:22.043Z,0.00
2022-11-24T04:29:22.018Z,0.00
2022-11-24T04:30:21.983Z,0.00
2022-11-24T04:31:22.025Z,0.00
2022-11-24T04:32:21.968Z,0.00
2022-11-24T04:33:21.961Z,0.00
2022-11-24T04:34:21.940Z,0.00
2022-11-24T04:35:28.474Z,0.00
2022-11-24T04:36:21.930Z,0.00
2022-11-24T04:37:21.933Z,0.00
2022-11-24T04:39:19.899Z,0.00
2022-11-24T04:39:30.683Z,0.00
2022-11-24T04:40:21.872Z,0.00
2022-11-24T04:41:21.880Z,0.00
2022-11-24T04:42:21.886Z,0.00
2022-11-24T04:43:21.842Z,0.00
2022-11-24T04:44:21.839Z,0.00
2022-11-24T04:45:21.864Z,0.00
2022-11-24T04:46:21.953Z,0.00
2022-11-24T04:47:21.818Z,0.00
2022-11-24T04:48:21.801Z,0.00
2022-11-24T04:49:21.790Z,0.00
2022-11-24T04:50:21.772Z,0.00
2022-11-24T04:51:21.751Z,0.00
2022-11-24T04:52:21.747Z,0.00
2022-11-24T04:53:21.766Z,0.00
2022-11-24T04:54:21.731Z,0.00
2022-11-24T04:55:21.730Z,0.00
2022-11-24T04:56:21.708Z,0.00
2022-11-24T04:57:21.682Z,0.00
2022-11-24T04:58:21.671Z,0.00
2022-11-24T04:59:21.702Z,0.00
2022-11-24T05:00:21.675Z,0.00
2022-11-24T05:01:21.684Z,0.00
2022-11-24T05:02:21.618Z,0.00
2022-11-24T05:03:21.636Z,0.00
2022-11-24T05:04:21.729Z,0.00
2022-11-24T05:05:28.675Z,0.00
2022-11-24T05:06:21.615Z,0.00
2022-11-24T05:07:21.664Z,0.00
2022-11-24T05:08:21.573Z,0.00
2022-11-24T05:09:21.556Z,0.00
2022-11-24T05:10:21.535Z,0.00
2022-11-24T05:11:21.512Z,0.00
2022-11-24T05:12:21.596Z,0.00
2022-11-24T05:13:21.568Z,0.00
2022-11-24T05:14:21.513Z,0.00
2022-11-24T05:15:21.491Z,0.00
2022-11-24T05:16:21.613Z,0.00
2022-11-24T05:17:21.445Z,0.00
2022-11-24T05:18:21.473Z,0.00
2022-11-24T05:19:21.455Z,0.00
2022-11-24T05:20:21.442Z,0.00
2022-11-24T05:21:21.441Z,0.00
2022-11-24T05:22:21.428Z,0.00
2022-11-24T05:23:21.400Z,0.00
2022-11-24T05:24:21.400Z,0.00
2022-11-24T05:25:21.377Z,0.00
2022-11-24T05:26:21.382Z,0.00
2022-11-24T05:27:21.336Z,0.00
2022-11-24T05:28:21.337Z,0.00
2022-11-24T05:29:21.329Z,0.00
2022-11-24T05:30:21.336Z,0.00
2022-11-24T05:31:21.397Z,0.00
2022-11-24T05:32:21.351Z,0.00
2022-11-24T05:33:21.285Z,0.00
2022-11-24T05:34:21.284Z,0.00
2022-11-24T05:35:21.266Z,0.00
2022-11-24T05:36:21.275Z,0.00
2022-11-24T05:37:21.237Z,0.00
2022-11-24T05:38:21.240Z,0.00
2022-11-24T05:39:21.255Z,0.00
2022-11-24T05:40:21.204Z,0.00
2022-11-24T05:41:21.203Z,0.00
2022-11-24T05:42:21.167Z,0.00
2022-11-24T05:43:21.186Z,0.00
2022-11-24T05:44:21.166Z,0.00
2022-11-24T05:45:21.168Z,0.00
2022-11-24T05:46:21.159Z,0.00
2022-11-24T05:47:21.178Z,0.00
2022-11-24T05:48:21.127Z,0.00
2022-11-24T05:49:21.099Z,0.00
2022-11-24T05:50:21.079Z,0.00
2022-11-24T05:51:21.106Z,0.00
2022-11-24T05:52:21.065Z,0.00
2022-11-24T05:53:21.066Z,0.00
2022-11-24T05:54:21.058Z,0.00
2022-11-24T05:55:21.039Z,0.00
2022-11-24T05:56:21.026Z,0.00
2022-11-24T05:57:21.044Z,0.00
2022-11-24T05:58:20.998Z,0.00
2022-11-24T05:59:21.016Z,0.00
2022-11-24T06:00:20.966Z,0.00
2022-11-24T06:01:20.995Z,0.00
2022-11-24T06:02:21.021Z,0.00
2022-11-24T06:03:21.004Z,0.00
2022-11-24T06:04:20.950Z,0.00
2022-11-24T06:05:20.941Z,0.00
2022-11-24T06:06:20.918Z,0.00
2022-11-24T06:07:20.923Z,0.00
2022-11-24T06:08:20.891Z,0.00
2022-11-24T06:09:20.872Z,0.00
2022-11-24T06:10:20.894Z,0.00
2022-11-24T06:11:20.852Z,0.00
2022-11-24T06:12:20.863Z,0.00
2022-11-24T06:13:20.872Z,0.00
2022-11-24T06:14:20.884Z,0.00
2022-11-24T06:15:20.820Z,0.00
2022-11-24T06:16:20.872Z,0.00
2022-11-24T06:17:20.839Z,0.00
2022-11-24T06:18:20.853Z,0.00
2022-11-24T06:19:20.792Z,0.00
2022-11-24T06:20:20.751Z,0.00
2022-11-24T06:21:20.760Z,0.00
2022-11-24T06:22:20.746Z,0.00
2022-11-24T06:23:20.719Z,0.00
2022-11-24T06:24:20.726Z,0.00
2022-11-24T06:25:27.216Z,0.00
2022-11-24T06:26:20.717Z,0.00
2022-11-24T06:27:20.669Z,0.00
2022-11-24T06:28:20.695Z,0.00
2022-11-24T06:29:20.664Z,0.00
2022-11-24T06:30:20.689Z,0.00
2022-11-24T06:31:20.776Z,4.00
2022-11-24T06:32:20.664Z,0.00
2022-11-24T06:33:20.631Z,4.00
2022-11-24T06:34:20.593Z,4.00
2022-11-24T06:35:20.577Z,4.00
2022-11-24T06:36:21.343Z,4.00
2022-11-24T06:37:20.559Z,8.00
2022-11-24T06:38:24.285Z,8.00
2022-11-24T06:39:20.535Z,12.00
2022-11-24T06:40:20.586Z,12.00
2022-11-24T06:41:20.513Z,12.00
2022-11-24T06:42:20.602Z,16.00
2022-11-24T06:43:20.503Z,16.00
2022-11-24T06:44:20.507Z,20.00
2022-11-24T06:45:20.489Z,28.00
2022-11-24T06:46:20.567Z,32.00
2022-11-24T06:47:20.472Z,32.00
2022-11-24T06:48:20.442Z,40.00
2022-11-24T06:49:20.490Z,44.00
2022-11-24T06:50:20.448Z,52.00
2022-11-24T06:51:20.430Z,56.00
2022-11-24T06:52:20.416Z,60.00
2022-11-24T06:53:20.389Z,60.00
2022-11-24T06:54:20.397Z,68.00
2022-11-24T06:55:20.367Z,64.00
2022-11-24T06:56:20.367Z,72.00
2022-11-24T06:57:20.399Z,92.00
2022-11-24T06:58:20.334Z,100.00
2022-11-24T06:59:20.355Z,116.00
2022-11-24T07:00:20.379Z,132.00
2022-11-24T07:01:20.478Z,148.00
2022-11-24T07:02:20.505Z,164.00
2022-11-24T07:03:20.338Z,168.00
2022-11-24T07:04:20.267Z,168.00
2022-11-24T07:05:20.275Z,164.00
2022-11-24T07:06:20.256Z,164.00
2022-11-24T07:07:20.318Z,172.00
2022-11-24T07:08:20.247Z,180.00
2022-11-24T07:09:20.204Z,192.00
2022-11-24T07:10:20.218Z,204.00
2022-11-24T07:11:20.222Z,216.00
2022-11-24T07:12:20.187Z,212.00
2022-11-24T07:13:20.164Z,208.00
2022-11-24T07:14:20.171Z,216.00
2022-11-24T07:15:20.238Z,252.00
2022-11-24T07:16:20.908Z,296.00
2022-11-24T07:17:21.078Z,336.00
2022-11-24T07:18:21.044Z,364.00
2022-11-24T07:19:24.580Z,380.00
2022-11-24T07:20:20.137Z,404.00
2022-11-24T07:21:20.098Z,444.00
2022-11-24T07:22:20.082Z,476.00
2022-11-24T07:23:20.072Z,492.00
2022-11-24T07:24:20.039Z,492.00
2022-11-24T07:25:20.135Z,476.00
2022-11-24T07:26:31.039Z,452.00
2022-11-24T07:27:21.790Z,428.00
2022-11-24T07:28:21.076Z,436.00
2022-11-24T07:29:20.869Z,484.00
2022-11-24T07:30:19.990Z,556.00
2022-11-24T07:31:20.008Z,632.00
2022-11-24T07:32:20.299Z,688.00
2022-11-24T07:33:19.935Z,712.00
2022-11-24T07:34:20.042Z,716.00
2022-11-24T07:35:20.831Z,724.00
2022-11-24T07:36:19.930Z,704.00
2022-11-24T07:37:19.938Z,688.00
2022-11-24T07:38:19.928Z,696.00
2022-11-24T07:39:20.786Z,736.00
2022-11-24T07:40:20.863Z,804.00
2022-11-24T07:41:19.847Z,860.00
2022-11-24T07:42:19.926Z,880.00
2022-11-24T07:43:21.783Z,868.00
2022-11-24T07:44:20.070Z,868.00
2022-11-24T07:45:19.838Z,896.00
2022-11-24T07:46:19.994Z,948.00
2022-11-24T07:47:19.811Z,1004.00
2022-11-24T07:48:19.792Z,1032.00
2022-11-24T07:49:20.008Z,1056.00
2022-11-24T07:50:20.369Z,1116.00
2022-11-24T07:51:19.858Z,1144.00
2022-11-24T07:52:19.967Z,1144.00
2022-11-24T07:53:19.748Z,1168.00
2022-11-24T07:54:19.737Z,1208.00
2022-11-24T07:55:19.926Z,1276.00
2022-11-24T07:56:30.634Z,1324.00
2022-11-24T07:57:19.902Z,1396.00
2022-11-24T07:58:19.702Z,1444.00
2022-11-24T07:59:19.709Z,1456.00
2022-11-24T08:00:19.650Z,1452.00
2022-11-24T08:01:20.341Z,1456.00
2022-11-24T08:02:20.046Z,1476.00
2022-11-24T08:03:19.880Z,1496.00
2022-11-24T08:04:19.628Z,1584.00
2022-11-24T08:05:19.808Z,1708.00
2022-11-24T08:06:26.197Z,1700.00
2022-11-24T08:07:23.082Z,1780.00
2022-11-24T08:08:19.584Z,2036.00
2022-11-24T08:09:20.925Z,2160.00
2022-11-24T08:10:35.630Z,2348.00
2022-11-24T08:11:27.842Z,2656.00
2022-11-24T08:12:38.384Z,2780.00
2022-11-24T08:13:19.737Z,2900.00
2022-11-24T08:14:21.013Z,2884.00
2022-11-24T08:15:20.389Z,2604.00
2022-11-24T08:16:20.108Z,2372.00
2022-11-24T08:17:20.459Z,2488.00
2022-11-24T08:18:19.543Z,2636.00
2022-11-24T08:22:27.931Z,3020.00
2022-11-24T08:22:33.486Z,3160.00
2022-11-24T08:23:32.719Z,3172.00
2022-11-24T08:24:34.400Z,3144.00
2022-11-24T08:25:32.738Z,3352.00
2022-11-24T08:26:33.402Z,3644.00
2022-11-24T08:27:32.711Z,3316.00
2022-11-24T08:28:32.907Z,3180.00
2022-11-24T08:29:36.674Z,2992.00
2022-11-24T08:30:32.650Z,2712.00
2022-11-24T08:31:33.578Z,2396.00
2022-11-24T08:32:32.660Z,2432.00
2022-11-24T08:33:32.625Z,2684.00
2022-11-24T08:34:33.286Z,2732.00
2022-11-24T08:35:33.272Z,2488.00
2022-11-24T08:36:32.784Z,2404.00
2022-11-24T08:37:32.641Z,2528.00
2022-11-24T08:38:32.802Z,2884.00
2022-11-24T08:39:32.567Z,3392.00
2022-11-24T08:40:33.562Z,3748.00
2022-11-24T08:41:35.652Z,4076.00
2022-11-24T08:42:32.759Z,4188.00
2022-11-24T08:43:34.373Z,4072.00
2022-11-24T08:44:32.968Z,4348.00
2022-11-24T08:45:36.781Z,4868.00
2022-11-24T08:46:32.546Z,5388.00
2022-11-24T08:47:32.479Z,5436.00
2022-11-24T08:48:32.443Z,4764.00
2022-11-24T08:49:32.427Z,3780.00
2022-11-24T08:50:33.414Z,3480.00
2022-11-24T08:51:32.392Z,3956.00
2022-11-24T08:52:33.384Z,3712.00
2022-11-24T08:53:32.397Z,3804.00
2022-11-24T08:54:32.524Z,3732.00
2022-11-24T08:55:38.977Z,3664.00
2022-11-24T08:56:32.367Z,3912.00
2022-11-24T08:57:32.383Z,4128.00
2022-11-24T08:58:32.411Z,4312.00
2022-11-24T08:59:32.381Z,4420.00
2022-11-24T09:00:32.326Z,4536.00
2022-11-24T09:01:32.996Z,4712.00
2022-11-24T09:02:33.860Z,4844.00
2022-11-24T09:03:32.928Z,4848.00
2022-11-24T09:04:33.162Z,4956.00
2022-11-24T09:06:38.780Z,4572.00
2022-11-24T09:07:35.192Z,4572.00
2022-11-24T09:08:32.259Z,4632.00
2022-11-24T09:09:32.945Z,4448.00
2022-11-24T09:10:32.905Z,4116.00
2022-11-24T09:11:32.182Z,3716.00
2022-11-24T09:12:32.175Z,3748.00
2022-11-24T09:13:32.200Z,3940.00
2022-11-24T09:14:32.418Z,3940.00
2022-11-24T09:15:32.160Z,3456.00
2022-11-24T09:16:32.192Z,3592.00
2022-11-24T09:17:33.219Z,4240.00
2022-11-24T09:18:32.116Z,4852.00
2022-11-24T09:19:32.484Z,5148.00
2022-11-24T09:20:32.462Z,5032.00
2022-11-24T09:21:32.114Z,4892.00
2022-11-24T09:22:32.042Z,4776.00
2022-11-24T09:23:32.123Z,4384.00
2022-11-24T09:24:32.929Z,4320.00
2022-11-24T09:25:32.018Z,4544.00
2022-11-24T09:26:32.952Z,4640.00
2022-11-24T09:27:32.224Z,4568.00
2022-11-24T09:28:32.946Z,4480.00
2022-11-24T09:29:32.607Z,4404.00
2022-11-24T09:30:33.900Z,5264.00
2022-11-24T09:31:32.592Z,7180.00
2022-11-24T09:32:32.021Z,7784.00
2022-11-24T09:33:32.920Z,6776.00
2022-11-24T09:34:32.355Z,6196.00
2022-11-24T09:35:31.940Z,6344.00
2022-11-24T09:36:34.004Z,6632.00
2022-11-24T09:37:32.850Z,6252.00
2022-11-24T09:38:32.541Z,4852.00
2022-11-24T09:39:32.431Z,3900.00
2022-11-24T09:40:39.207Z,3588.00
2022-11-24T09:41:33.496Z,3436.00
2022-11-24T09:42:33.044Z,4024.00
2022-11-24T09:43:31.833Z,4664.00
2022-11-24T09:44:32.461Z,5708.00
2022-11-24T09:46:03.235Z,6356.00
2022-11-24T09:46:31.865Z,6036.00
2022-11-24T09:47:33.149Z,5356.00
2022-11-24T09:48:32.180Z,4648.00
2022-11-24T09:49:32.197Z,3780.00
2022-11-24T09:50:31.942Z,3648.00
2022-11-24T09:51:54.192Z,3952.00
2022-11-24T09:52:34.811Z,4176.00
2022-11-24T09:53:48.745Z,3984.00
2022-11-24T09:54:33.758Z,3844.00
2022-11-24T09:55:33.612Z,3964.00
2022-11-24T09:56:37.389Z,4232.00
2022-11-24T09:57:37.037Z,5064.00
2022-11-24T09:58:31.637Z,6052.00
2022-11-24T09:59:31.854Z,6588.00
2022-11-24T10:00:31.634Z,6720.00
2022-11-24T10:01:39.713Z,5900.00
2022-11-24T10:02:31.813Z,5424.00
2022-11-24T10:03:31.592Z,5260.00
2022-11-24T10:04:31.624Z,5612.00
2022-11-24T10:05:32.418Z,6124.00
2022-11-24T10:06:32.410Z,5624.00
2022-11-24T10:07:33.019Z,4852.00
2022-11-24T10:08:31.920Z,4612.00
2022-11-24T10:09:32.232Z,4632.00
2022-11-24T10:10:34.198Z,5292.00
2022-11-24T10:11:34.689Z,6164.00
2022-11-24T10:12:31.912Z,6536.00
2022-11-24T10:13:32.518Z,6848.00
2022-11-24T10:14:31.493Z,7128.00
2022-11-24T10:15:32.707Z,7144.00
2022-11-24T10:16:32.510Z,7108.00
2022-11-24T10:17:33.546Z,7792.00
2022-11-24T10:18:31.413Z,7780.00
2022-11-24T10:19:36.938Z,7660.00
2022-11-24T10:20:31.418Z,7624.00
2022-11-24T10:21:31.501Z,8024.00
2022-11-24T10:22:31.422Z,11320.00
2022-11-24T10:23:34.556Z,16256.00
2022-11-24T10:24:31.993Z,13772.00
2022-11-24T10:25:31.390Z,14396.00
2022-11-24T10:26:31.648Z,16672.00
2022-11-24T10:27:37.947Z,15968.00
2022-11-24T10:28:31.312Z,14860.00
2022-11-24T10:29:32.287Z,14068.00
2022-11-24T10:30:31.301Z,13544.00
2022-11-24T10:31:31.391Z,14296.00
2022-11-24T10:32:33.927Z,14812.00
2022-11-24T10:33:33.108Z,17536.00
2022-11-24T10:34:31.298Z,9168.00
2022-11-24T10:35:31.220Z,9268.00
2022-11-24T10:36:32.146Z,9796.00
2022-11-24T10:37:31.202Z,15456.00
2022-11-24T10:38:31.520Z,10240.00
2022-11-24T10:39:31.350Z,8924.00
2022-11-24T10:41:31.254Z,18144.00
2022-11-24T10:42:31.176Z,9664.00
2022-11-24T10:43:31.786Z,13848.00
2022-11-24T10:44:31.147Z,12324.00
2022-11-24T10:45:38.772Z,12088.00
2022-11-24T10:46:36.260Z,12384.00
2022-11-24T10:47:40.049Z,15020.00
2022-11-24T10:48:32.119Z,15504.00
2022-11-24T10:49:31.066Z,19936.00
2022-11-24T10:50:31.311Z,13876.00
2022-11-24T10:51:32.511Z,19200.00
2022-11-24T10:52:31.057Z,9120.00
2022-11-24T10:53:32.432Z,8976.00
2022-11-24T10:54:31.944Z,13572.00
2022-11-24T10:55:31.089Z,12900.00
2022-11-24T10:56:31.020Z,10320.00
2022-11-24T10:57:35.121Z,15840.00
2022-11-24T10:58:37.965Z,10496.00
2022-11-24T10:59:31.222Z,10704.00
2022-11-24T11:00:34.527Z,12436.00
2022-11-24T11:01:31.623Z,12652.00
2022-11-24T11:02:32.540Z,9296.00
2022-11-24T11:03:32.350Z,9764.00
2022-11-24T11:04:53.225Z,8688.00
2022-11-24T11:05:31.482Z,18400.00
2022-11-24T11:06:31.440Z,11632.00
2022-11-24T11:07:30.941Z,18112.00
2022-11-24T11:08:31.971Z,16192.00
2022-11-24T11:09:31.760Z,7536.00
2022-11-24T11:10:33.138Z,7116.00
2022-11-24T11:11:34.234Z,12852.00
2022-11-24T11:12:47.630Z,8380.00
2022-11-24T11:13:33.647Z,8064.00
2022-11-24T11:14:45.686Z,8476.00
2022-11-24T11:15:32.576Z,9356.00
2022-11-24T11:16:31.955Z,9884.00
2022-11-24T11:17:32.080Z,11576.00
2022-11-24T11:18:30.749Z,20000.00
2022-11-24T11:19:50.057Z,20704.00
2022-11-24T11:20:32.885Z,19872.00
2022-11-24T11:21:33.699Z,17408.00
2022-11-24T11:22:31.664Z,9036.00
2022-11-24T11:23:32.259Z,8676.00
2022-11-24T11:24:30.674Z,16864.00
2022-11-24T11:25:30.667Z,16000.00
2022-11-24T11:26:31.086Z,14880.00
2022-11-24T11:27:30.676Z,15552.00
2022-11-24T11:28:30.652Z,16608.00
2022-11-24T11:31:30.626Z,15712.00
2022-11-24T11:34:05.915Z,15712.00
2022-11-24T11:34:34.178Z,14912.00
2022-11-24T11:35:32.498Z,15072.00
2022-11-24T11:36:31.481Z,14816.00
2022-11-24T11:37:31.651Z,9604.00
2022-11-24T11:38:30.579Z,6960.00
2022-11-24T11:39:30.512Z,7116.00
2022-11-24T11:40:30.527Z,15488.00
2022-11-24T11:41:34.686Z,10820.00
2022-11-24T11:43:00.834Z,8440.00
2022-11-24T11:43:31.353Z,13828.00
2022-11-24T11:44:30.456Z,9676.00
2022-11-24T11:45:30.554Z,9728.00
2022-11-24T11:46:31.106Z,16992.00
2022-11-24T11:47:30.430Z,16352.00
2022-11-24T11:48:40.576Z,7112.00
2022-11-24T11:49:30.676Z,6492.00
2022-11-24T11:50:30.496Z,8848.00
2022-11-24T11:51:30.530Z,17056.00
2022-11-24T11:52:30.384Z,14512.00
2022-11-24T11:53:30.339Z,8740.00
2022-11-24T11:54:30.381Z,7876.00
2022-11-24T11:55:30.344Z,15168.00
2022-11-24T11:56:30.313Z,9220.00
2022-11-24T11:57:30.385Z,13916.00
2022-11-24T11:58:30.339Z,17312.00
2022-11-24T11:59:30.299Z,10220.00
2022-11-24T12:00:30.256Z,8836.00
2022-11-24T12:01:30.285Z,9036.00
2022-11-24T12:02:30.377Z,13960.00
2022-11-24T12:03:30.371Z,19616.00
2022-11-24T12:04:30.237Z,11188.00
2022-11-24T12:05:30.232Z,17472.00
2022-11-24T12:06:30.213Z,16448.00
2022-11-24T12:07:30.304Z,15840.00
2022-11-24T12:08:43.964Z,9912.00
2022-11-24T12:09:30.186Z,12956.00
2022-11-24T12:10:30.157Z,16416.00
2022-11-24T12:11:30.169Z,17728.00
2022-11-24T12:12:30.144Z,12628.00
2022-11-24T12:13:30.143Z,13436.00
2022-11-24T12:14:30.138Z,9864.00
2022-11-24T12:15:36.714Z,12312.00
2022-11-24T12:16:30.197Z,16992.00
2022-11-24T12:17:30.097Z,13528.00
2022-11-24T12:19:30.075Z,15680.00
2022-11-24T12:20:30.034Z,15040.00
2022-11-24T12:21:30.071Z,14400.00
2022-11-24T12:22:30.058Z,9292.00
2022-11-24T12:23:30.040Z,16672.00
2022-11-24T12:24:30.079Z,17088.00
2022-11-24T12:25:30.211Z,16576.00
2022-11-24T12:26:29.988Z,15936.00
2022-11-24T12:27:32.250Z,14816.00
2022-11-24T12:28:30.514Z,15744.00
2022-11-24T12:29:29.946Z,15968.00
2022-11-24T12:30:29.962Z,15872.00
2022-11-24T12:31:29.961Z,16288.00
2022-11-24T12:32:29.908Z,16160.00
2022-11-24T12:33:29.924Z,15488.00
2022-11-24T12:34:29.904Z,15104.00
2022-11-24T12:35:29.892Z,15584.00
2022-11-24T12:36:29.901Z,9568.00
2022-11-24T12:37:29.898Z,14048.00
2022-11-24T12:38:29.867Z,13264.00
2022-11-24T12:39:30.044Z,14112.00
2022-11-24T12:40:29.846Z,14176.00
2022-11-24T12:41:45.213Z,14272.00
2022-11-24T12:42:29.830Z,14016.00
2022-11-24T12:43:30.561Z,13280.00
2022-11-24T12:44:29.771Z,13120.00
2022-11-24T12:45:29.825Z,13416.00
2022-11-24T12:46:32.848Z,13052.00
2022-11-24T12:47:31.629Z,12904.00
2022-11-24T12:48:29.755Z,12912.00
2022-11-24T12:49:29.704Z,12736.00